createdAt,value
2022-12-20T00:01:31.907Z,98689.69
2022-12-20T00:03:35.258Z,98689.69
2022-12-20T00:05:42.629Z,98683.69
2022-12-20T00:07:45.687Z,98682.81
2022-12-20T00:09:48.727Z,98681.16
2022-12-20T00:11:51.899Z,98676.88
2022-12-20T00:13:55.043Z,98685.44
2022-12-20T00:16:06.344Z,98684.63
2022-12-20T00:18:10.786Z,98681.25
2022-12-20T00:20:14.250Z,98673.50
2022-12-20T00:22:17.324Z,98653.75
2022-12-20T00:24:25.800Z,98650.28
2022-12-20T00:26:31.540Z,98656.28
2022-12-20T00:28:44.618Z,98649.41
2022-12-20T00:30:55.122Z,98646.88
2022-12-20T00:32:58.291Z,98634.88
2022-12-20T00:35:02.689Z,98642.59
2022-12-20T00:37:07.667Z,98646.88
2022-12-20T00:39:11.494Z,98648.56
2022-12-20T00:41:16.163Z,98646.00
2022-12-20T00:43:19.164Z,98649.50
2022-12-20T00:45:23.113Z,98641.81
2022-12-20T00:47:26.203Z,98632.34
2022-12-20T00:49:29.221Z,98634.03
2022-12-20T00:51:33.766Z,98629.72
2022-12-20T00:53:37.068Z,98624.56
2022-12-20T00:55:42.499Z,98633.19
2022-12-20T00:57:45.546Z,98634.94
2022-12-20T00:59:49.154Z,98635.81
2022-12-20T01:01:52.624Z,98654.72
2022-12-20T01:03:56.389Z,98654.69
2022-12-20T01:06:01.331Z,98644.34
2022-12-20T01:08:06.452Z,98633.09
2022-12-20T01:10:11.731Z,98634.66
2022-12-20T01:12:20.253Z,98639.69
2022-12-20T01:14:23.336Z,98650.03
2022-12-20T01:16:30.079Z,98631.09
2022-12-20T01:18:35.031Z,98607.88
2022-12-20T01:20:38.171Z,98611.38
2022-12-20T01:22:47.337Z,98638.25
2022-12-20T01:24:52.418Z,98640.88
2022-12-20T01:26:55.537Z,98656.31
2022-12-20T01:29:01.816Z,98662.25
2022-12-20T01:31:08.460Z,98656.09
2022-12-20T01:33:11.476Z,98656.06
2022-12-20T01:35:14.608Z,98663.75
2022-12-20T01:37:18.933Z,98662.00
2022-12-20T01:39:22.165Z,98652.50
2022-12-20T01:41:27.187Z,98655.19
2022-12-20T01:43:47.737Z,98656.06
2022-12-20T01:45:50.868Z,98651.72
2022-12-20T01:47:54.019Z,98643.97
2022-12-20T01:49:57.863Z,98637.97
2022-12-20T01:52:04.645Z,98639.63
2022-12-20T01:54:11.789Z,98630.16
2022-12-20T01:56:14.782Z,98628.47
2022-12-20T01:58:20.457Z,98624.06
2022-12-20T02:00:24.154Z,98624.06
2022-12-20T02:02:28.104Z,98618.91
2022-12-20T02:04:31.218Z,98617.25
2022-12-20T02:06:34.603Z,98611.28
2022-12-20T02:08:37.659Z,98617.31
2022-12-20T02:10:51.377Z,98620.84
2022-12-20T02:13:00.495Z,98620.00
2022-12-20T02:15:16.116Z,98607.03
2022-12-20T02:17:25.302Z,98597.59
2022-12-20T02:19:55.238Z,98619.13
2022-12-20T02:22:03.790Z,98616.59
2022-12-20T02:24:38.568Z,98619.22
2022-12-20T02:27:08.476Z,98589.13
2022-12-20T02:29:23.276Z,98579.78
2022-12-20T02:31:37.715Z,98593.78
2022-12-20T02:33:43.315Z,98582.66
2022-12-20T02:35:46.387Z,98580.13
2022-12-20T02:37:55.464Z,98587.88
2022-12-20T02:39:58.564Z,98599.00
2022-12-20T02:42:05.282Z,98583.53
2022-12-20T02:44:28.233Z,98576.50
2022-12-20T02:46:35.308Z,98584.19
2022-12-20T02:48:38.848Z,98560.88
2022-12-20T02:50:46.032Z,98573.78
2022-12-20T02:52:49.543Z,98582.44
2022-12-20T02:54:54.085Z,98576.50
2022-12-20T02:56:58.778Z,98579.84
2022-12-20T02:59:05.154Z,98571.28
2022-12-20T03:01:11.430Z,98563.53
2022-12-20T03:03:25.799Z,98579.03
2022-12-20T03:05:29.252Z,98573.03
2022-12-20T03:07:35.233Z,98573.91
2022-12-20T03:09:39.939Z,98567.06
2022-12-20T03:11:43.027Z,98580.88
2022-12-20T03:13:46.104Z,98587.00
2022-12-20T03:15:49.223Z,98576.72
2022-12-20T03:17:52.196Z,98565.56
2022-12-20T03:19:58.232Z,98556.13
2022-12-20T03:22:01.412Z,98559.53
2022-12-20T03:24:07.560Z,98556.13
2022-12-20T03:26:10.521Z,98561.28
2022-12-20T03:28:22.926Z,98563.88
2022-12-20T03:30:26.035Z,98557.75
2022-12-20T03:32:29.051Z,98536.22
2022-12-20T03:34:33.037Z,98544.84
2022-12-20T03:36:38.465Z,98544.84
2022-12-20T03:38:42.300Z,98540.50
2022-12-20T03:40:47.061Z,98538.75
2022-12-20T03:42:54.488Z,98538.66
2022-12-20T03:44:57.573Z,98541.22
2022-12-20T03:47:03.706Z,98528.31
2022-12-20T03:49:07.145Z,98548.97
2022-12-20T03:51:17.897Z,98545.56
2022-12-20T03:53:22.736Z,98542.16
2022-12-20T03:55:27.196Z,98548.19
2022-12-20T03:57:30.498Z,98554.13
2022-12-20T03:59:35.550Z,98551.56
2022-12-20T04:01:40.032Z,98566.16
2022-12-20T04:03:43.362Z,98558.41
2022-12-20T04:05:46.789Z,98535.19
2022-12-20T04:07:50.111Z,98535.19
2022-12-20T04:09:54.501Z,98535.06
2022-12-20T04:11:57.567Z,98538.41
2022-12-20T04:14:00.589Z,98532.38
2022-12-20T04:16:04.112Z,98519.44
2022-12-20T04:18:09.067Z,98520.22
2022-12-20T04:20:20.926Z,98518.50
2022-12-20T04:22:37.649Z,98503.00
2022-12-20T04:24:42.074Z,98513.28
2022-12-20T04:27:01.671Z,98506.38
2022-12-20T04:29:05.350Z,98498.63
2022-12-20T04:31:09.094Z,98505.38
2022-12-20T04:33:13.465Z,98502.75
2022-12-20T04:35:17.674Z,98504.44
2022-12-20T04:37:20.697Z,98515.53
2022-12-20T04:39:28.460Z,98509.38
2022-12-20T04:41:50.156Z,98508.53
2022-12-20T04:43:55.645Z,98511.00
2022-12-20T04:46:00.267Z,98517.78
2022-12-20T04:48:28.695Z,98513.41
2022-12-20T04:50:27.604Z,98520.28
2022-12-20T04:52:48.521Z,98515.94
2022-12-20T04:54:52.619Z,98507.31
2022-12-20T04:57:01.585Z,98496.97
2022-12-20T04:59:06.613Z,98495.25
2022-12-20T05:01:10.410Z,98490.94
2022-12-20T05:03:21.424Z,98485.81
2022-12-20T05:05:24.556Z,98478.13
2022-12-20T05:07:30.270Z,98480.66
2022-12-20T05:09:33.607Z,98483.19
2022-12-20T05:11:36.754Z,98486.59
2022-12-20T05:13:44.023Z,98478.72
2022-12-20T05:15:52.034Z,98465.03
2022-12-20T05:17:59.647Z,98476.19
2022-12-20T05:20:08.780Z,98475.38
2022-12-20T05:22:30.605Z,98474.41
2022-12-20T05:24:59.751Z,98472.59
2022-12-20T05:27:09.103Z,98462.25
2022-12-20T05:29:12.295Z,98470.00
2022-12-20T05:31:16.806Z,98466.59
2022-12-20T05:33:20.015Z,98470.06
2022-12-20T05:35:23.119Z,98471.78
2022-12-20T05:37:32.352Z,98469.97
2022-12-20T05:39:43.087Z,98470.78
2022-12-20T05:41:53.707Z,98459.63
2022-12-20T05:43:59.137Z,98466.41
2022-12-20T05:46:03.413Z,98459.50
2022-12-20T05:48:17.567Z,98469.00
2022-12-20T05:50:20.852Z,98465.50
2022-12-20T05:52:55.821Z,98469.00
2022-12-20T05:55:03.766Z,98477.59
2022-12-20T05:57:06.938Z,98473.25
2022-12-20T05:59:17.735Z,98462.84
2022-12-20T06:01:22.924Z,98464.47
2022-12-20T06:03:31.111Z,98451.56
2022-12-20T06:05:35.320Z,98452.31
2022-12-20T06:07:38.562Z,98437.63
2022-12-20T06:09:41.647Z,98445.38
2022-12-20T06:11:49.159Z,98438.44
2022-12-20T06:13:52.215Z,98445.31
2022-12-20T06:15:55.786Z,98443.50
2022-12-20T06:17:59.178Z,98442.63
2022-12-20T06:20:04.072Z,98442.56
2022-12-20T06:22:07.068Z,98445.94
2022-12-20T06:24:25.245Z,98452.78
2022-12-20T06:26:35.965Z,98456.28
2022-12-20T06:28:42.813Z,98469.16
2022-12-20T06:31:01.384Z,98456.22
2022-12-20T06:33:15.509Z,98458.75
2022-12-20T06:35:21.784Z,98454.41
2022-12-20T06:37:25.403Z,98460.34
2022-12-20T06:39:28.643Z,98451.63
2022-12-20T06:41:38.962Z,98454.22
2022-12-20T06:43:42.139Z,98455.06
2022-12-20T06:45:45.568Z,98456.75
2022-12-20T06:47:48.963Z,98463.59
2022-12-20T06:49:53.130Z,98472.13
2022-12-20T06:52:00.088Z,98466.13
2022-12-20T06:54:19.946Z,98465.19
2022-12-20T06:56:41.925Z,98470.38
2022-12-20T06:58:47.587Z,98469.41
2022-12-20T07:00:50.780Z,98471.16
2022-12-20T07:02:54.765Z,98467.66
2022-12-20T07:04:57.989Z,98470.19
2022-12-20T07:07:02.365Z,98471.94
2022-12-20T07:09:05.538Z,98483.97
2022-12-20T07:11:09.223Z,98474.53
2022-12-20T07:13:12.384Z,98479.69
2022-12-20T07:15:15.545Z,98482.28
2022-12-20T07:17:18.742Z,98489.13
2022-12-20T07:19:22.743Z,98481.44
2022-12-20T07:21:26.126Z,98471.09
2022-12-20T07:23:30.834Z,98473.75
2022-12-20T07:25:33.889Z,98470.25
2022-12-20T07:27:37.033Z,98471.94
2022-12-20T07:29:40.636Z,98474.47
2022-12-20T07:31:43.980Z,98469.22
2022-12-20T07:33:47.021Z,98468.41
2022-12-20T07:35:54.472Z,98465.69
2022-12-20T07:37:57.766Z,98461.34
2022-12-20T07:40:02.126Z,98468.97
2022-12-20T07:42:05.623Z,98471.50
2022-12-20T07:44:18.119Z,98473.25
2022-12-20T07:46:22.143Z,98470.66
2022-12-20T07:48:25.719Z,98481.91
2022-12-20T07:50:29.211Z,98482.59
2022-12-20T07:52:34.389Z,98475.72
2022-12-20T07:54:39.691Z,98473.94
2022-12-20T07:56:47.090Z,98474.78
2022-12-20T07:58:52.017Z,98473.00
2022-12-20T08:00:55.500Z,98472.00
2022-12-20T08:03:03.337Z,98464.19
2022-12-20T08:05:08.966Z,98472.56
2022-12-20T08:07:12.501Z,98474.28
2022-12-20T08:09:16.177Z,98474.13
2022-12-20T08:11:19.655Z,98477.50
2022-12-20T08:13:24.076Z,98477.28
2022-12-20T08:15:27.493Z,98482.28
2022-12-20T08:17:30.554Z,98475.31
2022-12-20T08:19:33.568Z,98483.84
2022-12-20T08:21:36.663Z,98489.84
2022-12-20T08:23:39.961Z,98488.91
2022-12-20T08:25:43.002Z,98481.16
2022-12-20T08:27:46.175Z,98475.06
2022-12-20T08:29:50.901Z,98479.25
2022-12-20T08:31:57.208Z,98468.84
2022-12-20T08:34:00.359Z,98469.63
2022-12-20T08:36:05.360Z,98460.06
2022-12-20T08:38:08.573Z,98460.81
2022-12-20T08:40:14.823Z,98455.56
2022-12-20T08:42:17.767Z,98446.84
2022-12-20T08:44:23.357Z,98445.84
2022-12-20T08:46:27.816Z,98438.16
2022-12-20T08:48:31.627Z,98439.00
2022-12-20T08:50:36.253Z,98441.53
2022-12-20T08:52:40.144Z,98441.41
2022-12-20T08:54:43.187Z,98439.63
2022-12-20T08:56:46.220Z,98439.63
2022-12-20T08:58:49.331Z,98441.41
2022-12-20T09:00:52.422Z,98433.63
2022-12-20T09:02:56.898Z,98426.78
2022-12-20T09:05:00.153Z,98420.69
2022-12-20T09:07:03.443Z,98429.22
2022-12-20T09:09:07.092Z,98416.22
2022-12-20T09:11:12.328Z,98421.25
2022-12-20T09:13:15.418Z,98421.25
2022-12-20T09:15:18.649Z,98425.47
2022-12-20T09:17:21.762Z,98425.38
2022-12-20T09:19:26.330Z,98423.50
2022-12-20T09:21:29.581Z,98419.00
2022-12-20T09:23:33.734Z,98411.97
2022-12-20T09:25:38.423Z,98409.31
2022-12-20T09:27:41.488Z,98418.78
2022-12-20T09:29:44.476Z,98424.84
2022-12-20T09:31:47.555Z,98421.25
2022-12-20T09:33:51.039Z,98410.75
2022-12-20T09:35:55.963Z,98408.03
2022-12-20T09:37:59.150Z,98398.34
2022-12-20T09:40:02.123Z,98395.53
2022-12-20T09:42:09.253Z,98403.16
2022-12-20T09:44:17.430Z,98415.91
2022-12-20T09:46:20.938Z,98417.38
2022-12-20T09:48:26.786Z,98418.00
2022-12-20T09:50:41.174Z,98413.47
2022-12-20T09:52:57.016Z,98408.13
2022-12-20T09:55:09.659Z,98409.94
2022-12-20T09:57:20.574Z,98408.13
2022-12-20T09:59:47.528Z,98406.22
2022-12-20T10:01:53.163Z,98397.53
2022-12-20T10:03:58.349Z,98394.03
2022-12-20T10:06:07.840Z,98393.13
2022-12-20T10:08:18.613Z,98385.28
2022-12-20T10:10:40.538Z,98380.91
2022-12-20T10:12:47.679Z,98384.19
2022-12-20T10:15:02.511Z,98380.63
2022-12-20T10:17:09.627Z,98384.03
2022-12-20T10:19:34.862Z,98378.03
2022-12-20T10:21:41.809Z,98378.72
2022-12-20T10:23:57.669Z,98380.25
2022-12-20T10:26:01.087Z,98381.78
2022-12-20T10:28:06.813Z,98384.16
2022-12-20T10:30:14.407Z,98366.84
2022-12-20T10:32:20.049Z,98358.91
2022-12-20T10:34:24.444Z,98363.94
2022-12-20T10:36:29.688Z,98367.22
2022-12-20T10:38:46.512Z,98367.00
2022-12-20T10:41:20.789Z,98362.41
2022-12-20T10:43:25.075Z,98358.75
2022-12-20T10:45:38.225Z,98358.59
2022-12-20T10:47:43.412Z,98363.63
2022-12-20T10:49:46.495Z,98357.38
2022-12-20T10:51:53.326Z,98361.47
2022-12-20T10:54:01.130Z,98360.41
2022-12-20T10:56:20.211Z,98355.81
2022-12-20T10:58:33.674Z,98343.56
2022-12-20T11:00:37.714Z,98336.44
2022-12-20T11:02:43.979Z,98338.00
2022-12-20T11:04:58.757Z,98334.50
2022-12-20T11:07:03.248Z,98335.25
2022-12-20T11:09:37.951Z,98345.72
2022-12-20T11:11:41.337Z,98337.94
2022-12-20T11:13:44.888Z,98330.94
2022-12-20T11:15:50.036Z,98326.56
2022-12-20T11:17:55.940Z,98331.69
2022-12-20T11:20:22.870Z,98338.41
2022-12-20T11:22:35.806Z,98320.16
2022-12-20T11:24:46.180Z,98301.91
2022-12-20T11:27:02.040Z,98302.56
2022-12-20T11:29:17.757Z,98309.38
2022-12-20T11:31:27.910Z,98315.47
2022-12-20T11:33:59.350Z,98308.44
2022-12-20T11:36:04.536Z,98311.72
2022-12-20T11:38:11.483Z,98311.63
2022-12-20T11:40:27.256Z,98308.88
2022-12-20T11:42:39.302Z,98301.75
2022-12-20T11:45:03.472Z,98294.78
2022-12-20T11:47:29.327Z,98290.25
2022-12-20T11:50:06.516Z,98291.88
2022-12-20T11:52:17.908Z,98289.19
2022-12-20T11:54:25.502Z,98283.00
2022-12-20T11:56:38.671Z,98275.97
2022-12-20T11:58:52.062Z,98267.09
2022-12-20T12:00:57.422Z,98261.72
2022-12-20T12:03:05.235Z,98262.56
2022-12-20T12:05:18.237Z,98263.38
2022-12-20T12:07:24.760Z,98251.25
2022-12-20T12:09:32.968Z,98245.97
2022-12-20T12:12:05.962Z,98246.72
2022-12-20T12:14:05.188Z,98241.44
2022-12-20T12:16:11.726Z,98242.97
2022-12-20T12:18:19.037Z,98242.78
2022-12-20T12:20:26.991Z,98247.84
2022-12-20T12:22:40.042Z,98246.06
2022-12-20T12:24:45.219Z,98262.56
2022-12-20T12:26:49.736Z,98266.03
2022-12-20T12:28:56.558Z,98259.06
2022-12-20T12:31:04.659Z,98261.56
2022-12-20T12:33:12.185Z,98257.03
2022-12-20T12:35:39.712Z,98255.19
2022-12-20T12:38:03.919Z,98250.19
2022-12-20T12:40:35.406Z,98233.22
2022-12-20T12:43:14.491Z,98243.63
2022-12-20T12:45:22.634Z,98231.63
2022-12-20T12:47:30.996Z,98235.09
2022-12-20T12:49:34.693Z,98231.53
2022-12-20T12:51:39.009Z,98228.03
2022-12-20T12:53:44.652Z,98218.34
2022-12-20T12:55:49.499Z,98222.34
2022-12-20T12:57:59.037Z,98225.59
2022-12-20T13:00:02.223Z,98220.97
2022-12-20T13:02:25.401Z,98230.19
2022-12-20T13:04:30.433Z,98233.53
2022-12-20T13:06:57.209Z,98235.13
2022-12-20T13:09:19.198Z,98227.97
2022-12-20T13:11:31.685Z,98220.00
2022-12-20T13:13:34.818Z,98212.81
2022-12-20T13:16:20.012Z,98202.16
2022-12-20T13:18:28.418Z,98183.84
2022-12-20T13:20:32.669Z,98184.59
2022-12-20T13:22:35.858Z,98176.72
2022-12-20T13:24:56.450Z,98181.91
2022-12-20T13:27:00.623Z,98181.81
2022-12-20T13:29:22.798Z,98180.69
2022-12-20T13:31:33.798Z,98182.28
2022-12-20T13:33:43.015Z,98170.03
2022-12-20T13:35:56.293Z,98174.41
2022-12-20T13:38:04.669Z,98174.22
2022-12-20T13:40:19.978Z,98179.31
2022-12-20T13:42:34.687Z,98185.72
2022-12-20T13:44:42.839Z,98194.47
2022-12-20T13:47:02.944Z,98202.25
2022-12-20T13:49:11.747Z,98202.25
2022-12-20T13:51:17.851Z,98213.38
2022-12-20T13:53:22.752Z,98211.63
2022-12-20T13:55:35.761Z,98191.66
2022-12-20T13:58:13.857Z,98199.38
2022-12-20T14:00:20.053Z,98197.69
2022-12-20T14:02:43.388Z,98192.50
2022-12-20T14:04:57.242Z,98187.31
2022-12-20T14:07:02.204Z,98196.00
2022-12-20T14:09:05.837Z,98179.59
2022-12-20T14:11:11.294Z,98182.19
2022-12-20T14:13:22.876Z,98178.69
2022-12-20T14:15:29.037Z,98179.31
2022-12-20T14:17:35.700Z,98170.59
2022-12-20T14:19:41.879Z,98163.53
2022-12-20T14:21:47.822Z,98153.88
2022-12-20T14:23:52.838Z,98148.75
2022-12-20T14:25:58.186Z,98143.56
2022-12-20T14:28:01.550Z,98150.53
2022-12-20T14:30:05.687Z,98146.16
2022-12-20T14:32:19.355Z,98145.25
2022-12-20T14:34:29.476Z,98138.38
2022-12-20T14:36:36.240Z,98137.53
2022-12-20T14:38:41.669Z,98144.41
2022-12-20T14:40:48.943Z,98145.25
2022-12-20T14:42:55.514Z,98140.31
2022-12-20T14:45:05.006Z,98139.50
2022-12-20T14:47:16.624Z,98132.72
2022-12-20T14:49:23.627Z,98128.34
2022-12-20T14:51:26.851Z,98126.69
2022-12-20T14:53:30.364Z,98129.38
2022-12-20T14:55:37.589Z,98129.47
2022-12-20T14:57:48.452Z,98128.59
2022-12-20T15:00:00.839Z,98132.16
2022-12-20T15:02:38.022Z,98132.25
2022-12-20T15:04:41.460Z,98131.47
2022-12-20T15:06:45.775Z,98136.69
2022-12-20T15:08:48.934Z,98141.88
2022-12-20T15:10:55.934Z,98142.75
2022-12-20T15:12:59.004Z,98133.16
2022-12-20T15:15:23.959Z,98139.19
2022-12-20T15:17:25.638Z,98121.09
2022-12-20T15:19:28.881Z,98119.44
2022-12-20T15:21:33.663Z,98115.16
2022-12-20T15:23:37.041Z,98108.19
2022-12-20T15:25:43.300Z,98106.44
2022-12-20T15:27:48.641Z,98105.59
2022-12-20T15:29:51.717Z,98094.47
2022-12-20T15:32:01.807Z,98094.53
2022-12-20T15:34:05.912Z,98099.00
2022-12-20T15:36:15.169Z,98085.28
2022-12-20T15:38:34.620Z,98081.00
2022-12-20T15:40:44.173Z,98081.28
2022-12-20T15:42:48.569Z,98087.56
2022-12-20T15:44:51.874Z,98082.38
2022-12-20T15:46:55.105Z,98082.38
2022-12-20T15:48:59.528Z,98086.75
2022-12-20T15:51:02.563Z,98096.41
2022-12-20T15:53:05.747Z,98098.91
2022-12-20T15:55:11.802Z,98101.50
2022-12-20T15:57:15.918Z,98103.25
2022-12-20T15:59:57.629Z,98104.13
2022-12-20T16:01:43.671Z,98105.84
2022-12-20T16:03:47.466Z,98105.94
2022-12-20T16:05:51.245Z,98100.00
2022-12-20T16:07:54.343Z,98099.28
2022-12-20T16:09:57.548Z,98101.97
2022-12-20T16:12:00.935Z,98101.03
2022-12-20T16:14:04.237Z,98099.38
2022-12-20T16:16:13.879Z,98102.97
2022-12-20T16:18:17.225Z,98103.06
2022-12-20T16:20:20.456Z,98100.38
2022-12-20T16:22:26.134Z,98097.88
2022-12-20T16:24:29.263Z,98099.72
2022-12-20T16:26:32.284Z,98095.44
2022-12-20T16:28:35.340Z,98101.66
2022-12-20T16:30:38.354Z,98092.13
2022-12-20T16:32:42.890Z,98100.00
2022-12-20T16:34:46.698Z,98096.72
2022-12-20T16:36:49.743Z,98096.84
2022-12-20T16:38:53.943Z,98089.97
2022-12-20T16:40:56.927Z,98099.72
2022-12-20T16:43:00.810Z,98103.22
2022-12-20T16:45:03.861Z,98092.00
2022-12-20T16:47:07.148Z,98092.00
2022-12-20T16:49:19.775Z,98092.91
2022-12-20T16:51:25.611Z,98096.34
2022-12-20T16:53:34.495Z,98084.28
2022-12-20T16:55:51.451Z,98086.97
2022-12-20T16:57:54.625Z,98097.44
2022-12-20T16:59:58.335Z,98092.34
2022-12-20T17:02:01.887Z,98085.56
2022-12-20T17:04:06.790Z,98088.22
2022-12-20T17:06:12.426Z,98087.69
2022-12-20T17:10:36.622Z,98103.44
2022-12-20T17:12:39.743Z,98104.59
2022-12-20T17:14:42.956Z,98099.84
2022-12-20T17:16:46.009Z,98113.94
2022-12-20T17:18:51.135Z,98111.16
2022-12-20T17:20:54.181Z,98105.03
2022-12-20T17:25:25.268Z,98098.38
2022-12-20T17:27:29.085Z,98095.78
2022-12-20T17:29:32.135Z,98095.09
2022-12-20T17:31:39.084Z,98099.28
2022-12-20T17:33:42.259Z,98100.88
2022-12-20T17:35:45.237Z,98096.34
2022-12-20T17:37:48.705Z,98092.81
2022-12-20T17:39:53.143Z,98099.59
2022-12-20T17:41:56.720Z,98105.44
2022-12-20T17:44:00.551Z,98106.94
2022-12-20T17:46:03.604Z,98098.97
2022-12-20T17:48:07.302Z,98095.38
2022-12-20T17:50:10.832Z,98082.94
2022-12-20T17:52:15.473Z,98078.59
2022-12-20T17:54:20.317Z,98069.88
2022-12-20T17:56:26.523Z,98076.06
2022-12-20T17:58:29.556Z,98074.53
2022-12-20T18:00:38.826Z,98076.25
2022-12-20T18:02:42.682Z,98072.56
2022-12-20T18:04:47.181Z,98065.50
2022-12-20T18:06:50.483Z,98057.72
2022-12-20T18:08:54.652Z,98069.16
2022-12-20T18:10:59.227Z,98063.88
2022-12-20T18:13:03.819Z,98064.69
2022-12-20T18:15:10.136Z,98055.13
2022-12-20T18:17:13.354Z,98052.53
2022-12-20T18:19:17.862Z,98046.50
2022-12-20T18:21:21.786Z,98046.69
2022-12-20T18:23:25.009Z,98048.63
2022-12-20T18:25:30.411Z,98048.63
2022-12-20T18:27:37.464Z,98047.88
2022-12-20T18:29:42.057Z,98038.53
2022-12-20T18:31:45.439Z,98043.03
2022-12-20T18:33:55.611Z,98045.81
2022-12-20T18:36:04.609Z,98041.75
2022-12-20T18:38:07.964Z,98032.44
2022-12-20T18:40:11.901Z,98029.94
2022-12-20T18:42:15.040Z,98034.50
2022-12-20T18:44:18.144Z,98044.13
2022-12-20T18:46:23.615Z,98053.75
2022-12-20T18:48:26.789Z,98057.38
2022-12-20T18:50:29.961Z,98054.00
2022-12-20T18:52:33.061Z,98057.81
2022-12-20T18:54:36.163Z,98057.13
2022-12-20T18:56:39.706Z,98053.16
2022-12-20T18:58:43.047Z,98043.78
2022-12-20T19:00:46.229Z,98045.63
2022-12-20T19:02:51.349Z,98048.31
2022-12-20T19:04:54.547Z,98044.03
2022-12-20T19:06:57.708Z,98040.53
2022-12-20T19:09:01.111Z,98040.53
2022-12-20T19:11:07.760Z,98043.13
2022-12-20T19:13:10.846Z,98045.72
2022-12-20T19:15:14.566Z,98041.44
2022-12-20T19:17:17.693Z,98037.94
2022-12-20T19:19:22.307Z,98043.13
2022-12-20T19:21:26.615Z,98044.75
2022-12-20T19:23:29.752Z,98056.75
2022-12-20T19:25:35.402Z,98058.50
2022-12-20T19:27:38.592Z,98055.91
2022-12-20T19:29:41.678Z,98061.00
2022-12-20T19:31:44.981Z,98065.34
2022-12-20T19:33:48.948Z,98055.81
2022-12-20T19:35:55.805Z,98063.63
2022-12-20T19:37:59.616Z,98056.81
2022-12-20T19:40:02.987Z,98044.84
2022-12-20T19:44:29.922Z,98043.28
2022-12-20T19:46:33.810Z,98037.06
2022-12-20T19:48:37.262Z,98037.94
2022-12-20T19:50:40.398Z,98036.25
2022-12-20T19:52:44.891Z,98031.06
2022-12-20T19:54:48.601Z,98028.47
2022-12-20T19:56:53.015Z,98025.88
2022-12-20T19:58:56.645Z,98019.00
2022-12-20T20:00:59.984Z,98020.78
2022-12-20T20:03:03.210Z,98021.88
2022-12-20T20:05:14.516Z,98017.69
2022-12-20T20:07:18.184Z,98025.47
2022-12-20T20:09:23.111Z,98022.97
2022-12-20T20:11:27.468Z,98014.38
2022-12-20T20:13:48.321Z,98014.38
2022-12-20T20:15:52.531Z,98011.78
2022-12-20T20:17:56.098Z,98013.59
2022-12-20T20:19:59.250Z,98011.00
2022-12-20T20:22:02.256Z,98014.38
2022-12-20T20:24:09.735Z,98021.19
2022-12-20T20:26:16.583Z,98015.09
2022-12-20T20:28:19.821Z,98010.66
2022-12-20T20:30:22.887Z,98009.91
2022-12-20T20:32:26.027Z,98013.41
2022-12-20T20:34:29.270Z,98014.09
2022-12-20T20:36:38.159Z,98017.53
2022-12-20T20:39:13.420Z,98022.72
2022-12-20T20:41:18.027Z,98030.31
2022-12-20T20:43:22.032Z,98037.25
2022-12-20T20:45:25.317Z,98035.41
2022-12-20T20:47:28.456Z,98043.28
2022-12-20T20:49:31.701Z,98055.50
2022-12-20T20:51:34.945Z,98043.53
2022-12-20T20:53:38.398Z,98048.25
2022-12-20T20:55:41.836Z,98050.06
2022-12-20T20:57:46.373Z,98051.69
2022-12-20T20:59:49.770Z,98056.03
2022-12-20T21:01:53.573Z,98054.28
2022-12-20T21:03:57.736Z,98061.13
2022-12-20T21:08:24.229Z,98069.50
2022-12-20T21:10:28.088Z,98080.69
2022-12-20T21:12:31.571Z,98081.56
2022-12-20T21:15:20.048Z,98074.75
2022-12-20T21:16:59.853Z,98080.78
2022-12-20T21:19:03.019Z,98080.59
2022-12-20T21:21:08.411Z,98091.81
2022-12-20T21:23:12.473Z,98093.50
2022-12-20T21:25:15.840Z,98090.97
2022-12-20T21:27:19.910Z,98075.59
2022-12-20T21:29:24.042Z,98078.28
2022-12-20T21:31:29.222Z,98082.47
2022-12-20T21:33:32.881Z,98080.69
2022-12-20T21:35:36.037Z,98088.47
2022-12-20T21:37:39.257Z,98078.09
2022-12-20T21:39:42.433Z,98078.66
2022-12-20T21:41:45.472Z,98081.25
2022-12-20T21:43:48.593Z,98065.59
2022-12-20T21:45:54.394Z,98064.78
2022-12-20T21:48:03.093Z,98071.66
2022-12-20T21:50:08.166Z,98064.78
2022-12-20T21:52:11.244Z,98060.50
2022-12-20T21:54:14.448Z,98056.66
2022-12-20T21:56:18.291Z,98064.88
2022-12-20T21:58:22.076Z,98060.69
2022-12-20T22:00:25.295Z,98055.59
2022-12-20T22:02:29.080Z,98053.94
2022-12-20T22:04:34.497Z,98045.41
2022-12-20T22:06:37.598Z,98041.13
2022-12-20T22:08:40.811Z,98046.31
2022-12-20T22:10:44.266Z,98054.00
2022-12-20T22:12:47.297Z,98045.31
2022-12-20T22:14:50.374Z,98040.13
2022-12-20T22:16:54.659Z,98049.81
2022-12-20T22:19:05.615Z,98037.78
2022-12-20T22:21:12.036Z,98053.44
2022-12-20T22:23:15.625Z,98047.47
2022-12-20T22:25:18.635Z,98044.81
2022-12-20T22:27:21.697Z,98055.09
2022-12-20T22:29:24.736Z,98047.31
2022-12-20T22:31:28.755Z,98049.06
2022-12-20T22:33:31.896Z,98054.19
2022-12-20T22:35:35.658Z,98059.38
2022-12-20T22:37:40.572Z,98065.28
2022-12-20T22:39:43.692Z,98061.88
2022-12-20T22:41:47.203Z,98062.69
2022-12-20T22:43:50.801Z,98075.59
2022-12-20T22:45:58.301Z,98066.16
2022-12-20T22:48:01.460Z,98062.63
2022-12-20T22:50:05.212Z,98056.59
2022-12-20T22:52:08.877Z,98050.50
2022-12-20T22:54:13.339Z,98053.09
2022-12-20T22:56:17.210Z,98051.25
2022-12-20T22:58:20.276Z,98050.31
2022-12-20T23:00:23.487Z,98052.91
2022-12-20T23:02:27.002Z,98057.16
2022-12-20T23:04:30.414Z,98058.09
2022-12-20T23:06:33.448Z,98062.69
2022-12-20T23:08:37.750Z,98059.19
2022-12-20T23:10:59.667Z,98051.84
2022-12-20T23:13:20.063Z,98051.09
2022-12-20T23:15:41.278Z,98048.59
2022-12-20T23:17:44.464Z,98053.78
2022-12-20T23:20:05.113Z,98050.25
2022-12-20T23:22:36.339Z,98049.41
2022-12-20T23:24:39.430Z,98033.94
2022-12-20T23:26:44.551Z,98030.53
2022-12-20T23:28:47.770Z,98021.06
2022-12-20T23:30:50.796Z,98018.47
2022-12-20T23:32:56.188Z,98015.78
2022-12-20T23:34:59.470Z,98013.94
2022-12-20T23:37:02.496Z,98014.78
2022-12-20T23:39:05.868Z,98005.16
2022-12-20T23:41:09.658Z,98009.44
2022-12-20T23:43:14.036Z,98008.66
2022-12-20T23:45:17.225Z,98012.13
2022-12-20T23:47:20.700Z,98025.09
2022-12-20T23:49:23.909Z,98020.63
2022-12-20T23:51:27.259Z,98022.31
2022-12-20T23:53:31.403Z,98026.47
2022-12-20T23:55:34.545Z,98029.06
2022-12-20T23:57:37.671Z,98019.56
2022-12-20T23:59:42.272Z,98026.38
